createdAt,value
2017-05-16T00:00:17.645Z,32
2017-05-16T00:01:17.656Z,32
2017-05-16T00:02:17.669Z,31.9
2017-05-16T00:03:17.683Z,32
2017-05-16T00:04:19.485Z,32
2017-05-16T00:05:17.773Z,32
2017-05-16T00:06:19.262Z,32
2017-05-16T00:07:17.702Z,32
2017-05-16T00:08:19.396Z,32
2017-05-16T00:09:17.889Z,32
2017-05-16T00:10:19.813Z,32
2017-05-16T00:11:17.971Z,32
2017-05-16T00:12:18.006Z,32
2017-05-16T00:13:18.097Z,32
2017-05-16T00:14:19.722Z,31.9
2017-05-16T00:15:18.307Z,32
2017-05-16T00:16:18.486Z,32
2017-05-16T00:17:18.908Z,32
2017-05-16T00:18:19.899Z,32
2017-05-16T00:19:19.979Z,32
2017-05-16T00:20:20.027Z,32
2017-05-16T00:21:20.193Z,31.9
2017-05-16T00:22:18.769Z,31.9
2017-05-16T00:23:20.282Z,31.9
2017-05-16T00:24:18.784Z,31.9
2017-05-16T00:25:18.779Z,31.9
2017-05-16T00:26:20.323Z,31.9
2017-05-16T00:27:18.951Z,32
2017-05-16T00:28:19.326Z,32
2017-05-16T00:29:20.553Z,31.9
2017-05-16T00:30:18.974Z,32
2017-05-16T00:31:19.200Z,32
2017-05-16T00:32:19.153Z,31.9
2017-05-16T00:33:20.781Z,31.9
2017-05-16T00:34:21.208Z,32
2017-05-16T00:35:19.399Z,31.9
2017-05-16T00:36:19.411Z,31.9
2017-05-16T00:37:19.584Z,31.9
2017-05-16T00:38:19.646Z,31.9
2017-05-16T00:39:19.660Z,31.9
2017-05-16T00:40:19.817Z,31.9
2017-05-16T00:41:19.717Z,31.9
2017-05-16T00:42:21.205Z,31.9
2017-05-16T00:43:21.378Z,31.9
2017-05-16T00:44:21.268Z,31.9
2017-05-16T00:45:19.757Z,31.9
2017-05-16T00:46:20.100Z,31.9
2017-05-16T00:47:21.430Z,31.9
2017-05-16T00:48:21.604Z,31.9
2017-05-16T00:49:20.154Z,31.9
2017-05-16T00:50:21.825Z,31.9
2017-05-16T00:51:21.711Z,31.9
2017-05-16T00:52:20.458Z,31.9
2017-05-16T00:53:20.244Z,31.9
2017-05-16T00:54:21.911Z,31.9
2017-05-16T00:55:22.098Z,31.9
2017-05-16T00:56:22.118Z,31.9
2017-05-16T00:57:20.648Z,31.9
2017-05-16T00:58:20.887Z,31.9
2017-05-16T00:59:20.634Z,31.9
2017-05-16T01:00:20.800Z,31.9
2017-05-16T01:01:20.720Z,31.9
2017-05-16T01:02:20.802Z,31.9
2017-05-16T01:03:21.036Z,31.9
2017-05-16T01:04:22.954Z,31.9
2017-05-16T01:05:22.665Z,31.9
2017-05-16T01:06:21.144Z,31.9
2017-05-16T01:07:21.170Z,31.9
2017-05-16T01:08:22.829Z,31.9
2017-05-16T01:09:21.369Z,31.9
2017-05-16T01:10:23.180Z,31.9
2017-05-16T01:11:22.927Z,31.9
2017-05-16T01:12:21.363Z,31.9
2017-05-16T01:13:21.402Z,31.9
2017-05-16T01:14:23.152Z,31.9
2017-05-16T01:15:21.582Z,31.9
2017-05-16T01:16:21.751Z,31.9
2017-05-16T01:17:23.071Z,31.9
2017-05-16T01:18:23.234Z,31.9
2017-05-16T01:19:23.294Z,31.9
2017-05-16T01:20:23.212Z,31.9
2017-05-16T01:21:21.716Z,31.9
2017-05-16T01:22:23.552Z,31.9
2017-05-16T01:23:21.873Z,31.9
2017-05-16T01:24:21.788Z,31.9
2017-05-16T01:25:21.946Z,31.9
2017-05-16T01:26:23.566Z,31.9
2017-05-16T01:27:23.456Z,31.9
2017-05-16T01:28:22.267Z,31.9
2017-05-16T01:29:22.101Z,31.9
2017-05-16T01:30:23.716Z,31.9
2017-05-16T01:31:22.046Z,31.9
2017-05-16T01:32:23.668Z,31.9
2017-05-16T01:33:22.104Z,31.9
2017-05-16T01:34:22.569Z,31.9
2017-05-16T01:35:22.300Z,31.9
2017-05-16T01:36:22.342Z,31.9
2017-05-16T01:37:22.227Z,31.9
2017-05-16T01:38:23.966Z,31.9
2017-05-16T01:39:22.430Z,31.9
2017-05-16T01:40:24.308Z,31.9
2017-05-16T01:41:23.972Z,31.8
2017-05-16T01:42:22.567Z,31.9
2017-05-16T01:43:22.587Z,31.9
2017-05-16T01:44:22.552Z,31.9
2017-05-16T01:45:24.211Z,31.9
2017-05-16T01:46:22.850Z,31.9
2017-05-16T01:47:22.729Z,31.9
2017-05-16T01:48:24.296Z,31.8
2017-05-16T01:49:22.827Z,31.9
2017-05-16T01:50:22.970Z,31.9
2017-05-16T01:51:24.677Z,31.8
2017-05-16T01:52:23.399Z,31.9
2017-05-16T01:53:23.125Z,31.9
2017-05-16T01:54:23.176Z,31.9
2017-05-16T01:55:23.196Z,31.9
2017-05-16T01:56:24.760Z,31.9
2017-05-16T01:57:23.284Z,31.8
2017-05-16T01:58:23.593Z,31.9
2017-05-16T01:59:23.175Z,31.8
2017-05-16T02:00:23.309Z,31.9
2017-05-16T02:01:23.398Z,31.9
2017-05-16T02:02:24.908Z,31.9
2017-05-16T02:03:24.968Z,31.9
2017-05-16T02:04:23.688Z,31.8
2017-05-16T02:05:23.423Z,31.9
2017-05-16T02:06:23.497Z,31.9
2017-05-16T02:07:23.662Z,31.8
2017-05-16T02:08:23.655Z,31.9
2017-05-16T02:09:23.634Z,31.9
2017-05-16T02:10:25.553Z,31.9
2017-05-16T02:11:23.666Z,31.9
2017-05-16T02:12:25.293Z,31.8
2017-05-16T02:13:23.915Z,31.9
2017-05-16T02:14:23.829Z,31.9
2017-05-16T02:15:25.455Z,31.9
2017-05-16T02:16:25.755Z,31.9
2017-05-16T02:17:24.049Z,31.9
2017-05-16T02:18:23.945Z,31.9
2017-05-16T02:19:25.685Z,31.9
2017-05-16T02:20:25.663Z,31.9
2017-05-16T02:21:25.648Z,31.8
2017-05-16T02:22:26.134Z,31.8
2017-05-16T02:23:24.244Z,31.8
2017-05-16T02:24:26.080Z,31.8
2017-05-16T02:25:24.351Z,31.8
2017-05-16T02:26:26.079Z,31.8
2017-05-16T02:27:24.470Z,31.8
2017-05-16T02:28:24.917Z,31.8
2017-05-16T02:29:24.747Z,31.8
2017-05-16T02:30:26.311Z,31.8
2017-05-16T02:31:24.821Z,31.8
2017-05-16T02:32:26.412Z,31.8
2017-05-16T02:33:26.451Z,31.8
2017-05-16T02:34:26.619Z,31.8
2017-05-16T02:35:26.397Z,31.8
2017-05-16T02:36:24.770Z,31.8
2017-05-16T02:37:26.396Z,31.8
2017-05-16T02:38:24.875Z,31.8
2017-05-16T02:39:26.671Z,31.8
2017-05-16T02:40:26.962Z,31.8
2017-05-16T02:41:25.151Z,31.8
2017-05-16T02:42:26.686Z,31.8
2017-05-16T02:43:25.282Z,31.8
2017-05-16T02:44:26.927Z,31.8
2017-05-16T02:45:26.968Z,31.8
2017-05-16T02:46:27.326Z,31.8
2017-05-16T02:47:25.446Z,31.8
2017-05-16T02:48:25.511Z,31.8
2017-05-16T02:49:27.000Z,31.8
2017-05-16T02:50:27.152Z,31.8
2017-05-16T02:51:25.652Z,31.8
2017-05-16T02:52:26.016Z,31.8
2017-05-16T02:53:27.323Z,31.8
2017-05-16T02:54:27.395Z,31.8
2017-05-16T02:55:25.855Z,31.8
2017-05-16T02:56:25.928Z,31.8
2017-05-16T02:57:25.956Z,31.8
2017-05-16T02:58:28.037Z,31.8
2017-05-16T02:59:26.051Z,31.8
2017-05-16T03:00:26.094Z,31.8
2017-05-16T03:01:27.894Z,31.8
2017-05-16T03:02:26.390Z,31.8
2017-05-16T03:03:28.049Z,31.8
2017-05-16T03:04:26.718Z,31.8
2017-05-16T03:05:27.885Z,31.8
2017-05-16T03:06:26.304Z,31.8
2017-05-16T03:07:28.061Z,31.8
2017-05-16T03:08:26.547Z,31.8
2017-05-16T03:09:28.051Z,31.8
2017-05-16T03:10:28.429Z,31.8
2017-05-16T03:11:26.665Z,31.8
2017-05-16T03:12:26.557Z,31.8
2017-05-16T03:13:28.863Z,31.8
2017-05-16T03:14:26.774Z,31.8
2017-05-16T03:15:26.647Z,31.8
2017-05-16T03:16:28.643Z,31.8
2017-05-16T03:17:26.719Z,31.8
2017-05-16T03:18:28.375Z,31.8
2017-05-16T03:19:28.468Z,31.8
2017-05-16T03:20:26.911Z,31.8
2017-05-16T03:21:27.081Z,31.8
2017-05-16T03:22:28.880Z,31.8
2017-05-16T03:23:26.977Z,31.8
2017-05-16T03:24:28.601Z,31.8
2017-05-16T03:25:27.241Z,31.8
2017-05-16T03:26:28.805Z,31.8
2017-05-16T03:27:28.953Z,31.8
2017-05-16T03:28:27.734Z,31.8
2017-05-16T03:29:27.374Z,31.8
2017-05-16T03:30:28.991Z,31.8
2017-05-16T03:31:29.157Z,31.8
2017-05-16T03:32:29.183Z,31.8
2017-05-16T03:33:27.644Z,31.8
2017-05-16T03:34:28.038Z,31.8
2017-05-16T03:35:27.803Z,31.8
2017-05-16T03:36:27.948Z,31.8
2017-05-16T03:37:27.984Z,31.8
2017-05-16T03:38:27.913Z,31.8
2017-05-16T03:39:28.023Z,31.8
2017-05-16T03:40:28.305Z,31.8
2017-05-16T03:41:29.720Z,31.8
2017-05-16T03:42:29.910Z,31.8
2017-05-16T03:43:29.808Z,31.8
2017-05-16T03:44:29.874Z,31.8
2017-05-16T03:45:30.024Z,31.8
2017-05-16T03:46:28.768Z,31.7
2017-05-16T03:47:28.357Z,31.7
2017-05-16T03:48:30.002Z,31.7
2017-05-16T03:49:30.074Z,31.7
2017-05-16T03:50:30.240Z,31.7
2017-05-16T03:51:28.679Z,31.7
2017-05-16T03:52:28.918Z,31.7
2017-05-16T03:53:30.392Z,31.7
2017-05-16T03:54:30.422Z,31.7
2017-05-16T03:55:30.349Z,31.7
2017-05-16T03:56:30.429Z,31.7
2017-05-16T03:57:28.884Z,31.7
2017-05-16T03:58:30.953Z,31.7
2017-05-16T03:59:30.661Z,31.7
2017-05-16T04:00:30.767Z,31.7
2017-05-16T04:01:29.307Z,31.7
2017-05-16T04:02:30.681Z,31.7
2017-05-16T04:03:30.889Z,31.7
2017-05-16T04:04:31.133Z,31.7
2017-05-16T04:05:30.912Z,31.7
2017-05-16T04:06:30.931Z,31.7
2017-05-16T04:07:30.995Z,31.7
2017-05-16T04:08:31.158Z,31.7
2017-05-16T04:09:29.569Z,31.7
2017-05-16T04:10:29.839Z,31.7
2017-05-16T04:11:29.710Z,31.7
2017-05-16T04:12:31.206Z,31.7
2017-05-16T04:13:29.658Z,31.7
2017-05-16T04:14:31.318Z,31.7
2017-05-16T04:15:29.916Z,31.7
2017-05-16T04:16:30.221Z,31.7
2017-05-16T04:17:29.912Z,31.7
2017-05-16T04:18:31.652Z,31.7
2017-05-16T04:19:30.235Z,31.7
2017-05-16T04:20:31.722Z,31.7
2017-05-16T04:21:31.796Z,31.8
2017-05-16T04:22:32.279Z,31.7
2017-05-16T04:23:32.036Z,31.8
2017-05-16T04:24:32.075Z,31.7
2017-05-16T04:25:31.991Z,31.8
2017-05-16T04:26:32.046Z,31.8
2017-05-16T04:27:32.103Z,31.8
2017-05-16T04:28:33.316Z,31.8
2017-05-16T04:29:30.643Z,31.8
2017-05-16T04:30:32.195Z,31.8
2017-05-16T04:31:30.779Z,31.7
2017-05-16T04:32:32.373Z,31.8
2017-05-16T04:33:30.730Z,31.8
2017-05-16T04:34:31.094Z,31.8
2017-05-16T04:35:32.552Z,31.7
2017-05-16T04:36:31.029Z,31.5
2017-05-16T04:37:32.631Z,31.3
2017-05-16T04:38:31.125Z,31.2
2017-05-16T04:39:30.921Z,31
2017-05-16T04:40:31.300Z,30.9
2017-05-16T04:41:31.190Z,30.8
2017-05-16T04:42:32.703Z,30.7
2017-05-16T04:43:32.838Z,30.6
2017-05-16T04:44:31.340Z,30.5
2017-05-16T04:45:32.851Z,30.4
2017-05-16T04:46:31.790Z,30.3
2017-05-16T04:47:32.922Z,30.2
2017-05-16T04:48:33.017Z,30.2
2017-05-16T04:49:31.647Z,30.1
2017-05-16T04:50:33.148Z,30.1
2017-05-16T04:51:33.166Z,30
2017-05-16T04:52:33.572Z,30
2017-05-16T04:53:33.337Z,30
2017-05-16T04:54:31.724Z,29.9
2017-05-16T04:55:33.503Z,29.9
2017-05-16T04:56:33.504Z,29.8
2017-05-16T04:57:33.675Z,29.9
2017-05-16T04:58:32.480Z,29.8
2017-05-16T04:59:33.697Z,29.8
2017-05-16T05:00:33.821Z,29.8
2017-05-16T05:01:32.174Z,29.8
2017-05-16T05:02:33.903Z,29.8
2017-05-16T05:03:33.941Z,29.7
2017-05-16T05:04:34.314Z,29.7
2017-05-16T05:05:32.655Z,29.6
2017-05-16T05:06:32.594Z,29.7
2017-05-16T05:07:32.704Z,29.6
2017-05-16T05:08:32.748Z,29.6
2017-05-16T05:09:34.409Z,29.6
2017-05-16T05:10:33.106Z,29.6
2017-05-16T05:11:34.569Z,29.6
2017-05-16T05:12:34.523Z,29.6
2017-05-16T05:13:34.596Z,29.5
2017-05-16T05:14:34.631Z,29.6
2017-05-16T05:15:34.722Z,29.6
2017-05-16T05:16:35.209Z,29.5
2017-05-16T05:17:35.548Z,29.5
2017-05-16T05:18:33.413Z,29.5
2017-05-16T05:19:33.334Z,29.5
2017-05-16T05:20:33.516Z,29.5
2017-05-16T05:21:35.150Z,29.4
2017-05-16T05:22:33.773Z,29.4
2017-05-16T05:23:35.159Z,29.4
2017-05-16T05:24:35.417Z,29.4
2017-05-16T05:25:36.887Z,29.4
2017-05-16T05:26:34.570Z,29.4
2017-05-16T05:27:34.888Z,29.3
2017-05-16T05:28:34.908Z,29.4
2017-05-16T05:29:35.900Z,29.4
2017-05-16T05:30:34.208Z,29.4
2017-05-16T05:31:35.414Z,29.4
2017-05-16T05:32:34.205Z,29.4
2017-05-16T05:33:38.342Z,29.4
2017-05-16T05:34:39.011Z,29.4
2017-05-16T05:35:38.468Z,29.4
2017-05-16T05:36:36.819Z,29.5
2017-05-16T05:37:35.239Z,29.5
2017-05-16T05:38:37.844Z,29.5
2017-05-16T05:39:37.374Z,29.5
2017-05-16T05:40:35.043Z,29.5
2017-05-16T05:41:37.043Z,29.5
2017-05-16T05:42:36.048Z,29.6
2017-05-16T05:43:36.543Z,29.6
2017-05-16T05:44:36.069Z,29.6
2017-05-16T05:45:36.828Z,29.6
2017-05-16T05:46:36.850Z,29.6
2017-05-16T05:47:36.370Z,29.6
2017-05-16T05:48:36.429Z,29.6
2017-05-16T05:49:34.853Z,29.5
2017-05-16T05:50:38.968Z,29.5
2017-05-16T05:51:34.888Z,29.5
2017-05-16T05:52:35.231Z,29.5
2017-05-16T05:53:35.616Z,29.5
2017-05-16T05:54:35.108Z,29.6
2017-05-16T05:55:35.668Z,29.6
2017-05-16T05:56:36.667Z,29.6
2017-05-16T05:57:35.084Z,29.7
2017-05-16T05:58:37.115Z,29.7
2017-05-16T05:59:35.118Z,29.7
2017-05-16T06:00:35.379Z,29.6
2017-05-16T06:01:38.312Z,29.7
2017-05-16T06:02:35.317Z,29.7
2017-05-16T06:03:37.156Z,29.7
2017-05-16T06:04:37.362Z,29.7
2017-05-16T06:05:37.130Z,29.7
2017-05-16T06:06:37.139Z,29.7
2017-05-16T06:07:35.669Z,29.7
2017-05-16T06:08:37.249Z,29.7
2017-05-16T06:09:37.222Z,29.7
2017-05-16T06:10:37.561Z,29.8
2017-05-16T06:11:35.608Z,29.8
2017-05-16T06:12:35.743Z,29.8
2017-05-16T06:13:37.528Z,29.8
2017-05-16T06:14:35.812Z,29.8
2017-05-16T06:15:36.353Z,29.9
2017-05-16T06:16:36.226Z,29.9
2017-05-16T06:17:39.567Z,29.8
2017-05-16T06:18:36.221Z,29.9
2017-05-16T06:19:37.718Z,30
2017-05-16T06:20:36.357Z,30
2017-05-16T06:21:37.670Z,30
2017-05-16T06:22:36.699Z,30
2017-05-16T06:23:40.622Z,30
2017-05-16T06:24:37.187Z,30.1
2017-05-16T06:25:37.112Z,30.1
2017-05-16T06:26:38.108Z,30.1
2017-05-16T06:27:38.502Z,30.1
2017-05-16T06:28:38.671Z,30.2
2017-05-16T06:29:38.304Z,30.2
2017-05-16T06:30:40.240Z,30.2
2017-05-16T06:31:40.269Z,30.2
2017-05-16T06:32:37.783Z,30.3
2017-05-16T06:33:40.301Z,30.3
2017-05-16T06:34:40.868Z,30.2
2017-05-16T06:35:38.691Z,30.2
2017-05-16T06:36:40.266Z,30.3
2017-05-16T06:37:38.650Z,30.3
2017-05-16T06:38:40.444Z,30.3
2017-05-16T06:39:39.571Z,30.4
2017-05-16T06:40:39.347Z,30.5
2017-05-16T06:41:38.186Z,30.5
2017-05-16T06:42:37.547Z,30.5
2017-05-16T06:43:37.477Z,30.6
2017-05-16T06:44:39.177Z,30.6
2017-05-16T06:45:39.164Z,30.6
2017-05-16T06:46:39.687Z,30.6
2017-05-16T06:47:38.036Z,30.5
2017-05-16T06:48:38.074Z,30.6
2017-05-16T06:49:38.040Z,30.6
2017-05-16T06:50:38.798Z,30.6
2017-05-16T06:51:39.748Z,30.6
2017-05-16T06:52:40.137Z,30.6
2017-05-16T06:53:38.518Z,30.6
2017-05-16T06:54:38.188Z,30.6
2017-05-16T06:55:39.950Z,30.6
2017-05-16T06:56:40.077Z,30.5
2017-05-16T06:57:43.324Z,30.5
2017-05-16T06:58:41.593Z,30.5
2017-05-16T06:59:40.917Z,30.6
2017-05-16T07:00:39.303Z,30.6
2017-05-16T07:01:40.267Z,30.6
2017-05-16T07:02:38.547Z,30.7
2017-05-16T07:03:41.901Z,30.6
2017-05-16T07:04:42.580Z,30.7
2017-05-16T07:05:41.077Z,30.8
2017-05-16T07:06:50.898Z,30.8
2017-05-16T07:07:47.176Z,30.8
2017-05-16T07:08:45.586Z,30.8
2017-05-16T07:09:44.002Z,30.8
2017-05-16T07:10:44.983Z,30.8
2017-05-16T07:11:45.113Z,30.8
2017-05-16T07:12:43.433Z,30.9
2017-05-16T07:13:43.726Z,30.9
2017-05-16T07:14:43.724Z,31
2017-05-16T07:15:44.126Z,31.1
2017-05-16T07:16:41.409Z,31.1
2017-05-16T07:17:43.175Z,31.1
2017-05-16T07:18:42.416Z,31.2
2017-05-16T07:19:44.038Z,31.3
2017-05-16T07:20:44.823Z,31.3
2017-05-16T07:21:45.043Z,31.3
2017-05-16T07:22:39.945Z,31.4
2017-05-16T07:23:41.958Z,31.4
2017-05-16T07:24:45.850Z,31.4
2017-05-16T07:25:46.684Z,31.4
2017-05-16T07:26:46.087Z,31.4
2017-05-16T07:27:45.281Z,31.4
2017-05-16T07:28:43.721Z,31.5
2017-05-16T07:29:43.126Z,31.4
2017-05-16T07:30:43.440Z,31.5
2017-05-16T07:31:44.178Z,31.5
2017-05-16T07:32:43.551Z,31.5
2017-05-16T07:33:40.664Z,31.6
2017-05-16T07:34:46.295Z,31.6
2017-05-16T07:35:46.780Z,31.7
2017-05-16T07:36:41.779Z,31.8
2017-05-16T07:37:45.167Z,31.9
2017-05-16T07:38:43.298Z,31.9
2017-05-16T07:39:44.971Z,31.9
2017-05-16T07:40:42.890Z,31.9
2017-05-16T07:41:44.602Z,31.9
2017-05-16T07:42:44.202Z,31.9
2017-05-16T07:43:44.960Z,32
2017-05-16T07:44:41.767Z,32
2017-05-16T07:45:44.200Z,32
2017-05-16T07:46:45.443Z,32
2017-05-16T07:47:44.605Z,32
2017-05-16T07:48:42.453Z,32
2017-05-16T07:49:47.759Z,32
2017-05-16T07:50:43.173Z,32.1
2017-05-16T07:51:46.778Z,32.1
2017-05-16T07:52:42.656Z,32.3
2017-05-16T07:53:42.615Z,32.3
2017-05-16T07:54:42.597Z,32.3
2017-05-16T07:55:42.823Z,32.4
2017-05-16T07:56:42.647Z,32.5
2017-05-16T07:57:45.800Z,32.5
2017-05-16T07:58:44.543Z,32.5
2017-05-16T07:59:43.908Z,32.6
2017-05-16T08:00:44.470Z,32.6
2017-05-16T08:01:44.183Z,32.6
2017-05-16T08:02:43.325Z,32.6
2017-05-16T08:03:44.534Z,32.6
2017-05-16T08:04:48.283Z,32.6
2017-05-16T08:05:46.705Z,32.6
2017-05-16T08:06:44.866Z,32.6
2017-05-16T08:07:44.716Z,32.5
2017-05-16T08:08:45.335Z,32.6
2017-05-16T08:09:44.989Z,32.6
2017-05-16T08:10:46.116Z,32.6
2017-05-16T08:11:52.855Z,32.6
2017-05-16T08:12:46.831Z,32.7
2017-05-16T08:13:43.906Z,32.5
2017-05-16T08:14:44.325Z,32.7
2017-05-16T08:15:51.130Z,32.6
2017-05-16T08:16:52.136Z,32.7
2017-05-16T08:17:43.255Z,32.7
2017-05-16T08:18:45.612Z,32.6
2017-05-16T08:19:44.586Z,32.7
2017-05-16T08:20:46.827Z,32.7
2017-05-16T08:21:47.399Z,32.8
2017-05-16T08:22:42.877Z,32.8
2017-05-16T08:23:43.859Z,32.8
2017-05-16T08:24:45.922Z,32.9
2017-05-16T08:25:44.263Z,33
2017-05-16T08:26:43.985Z,33
2017-05-16T08:27:43.805Z,33.1
2017-05-16T08:28:45.091Z,33.1
2017-05-16T08:29:49.343Z,33.2
2017-05-16T08:30:44.233Z,33.3
2017-05-16T08:31:44.598Z,33.4
2017-05-16T08:32:43.382Z,33.5
2017-05-16T08:33:45.206Z,33.5
2017-05-16T08:34:45.703Z,33.6
2017-05-16T08:35:44.489Z,33.6
2017-05-16T08:36:44.491Z,33.7
2017-05-16T08:37:42.969Z,33.8
2017-05-16T08:38:46.806Z,33.9
2017-05-16T08:39:43.769Z,34
2017-05-16T08:40:49.653Z,34
2017-05-16T08:41:43.899Z,34.1
2017-05-16T08:42:43.126Z,34.2
2017-05-16T08:43:44.947Z,34.2
2017-05-16T08:44:46.812Z,34.3
2017-05-16T08:45:48.394Z,34.2
2017-05-16T08:46:45.117Z,34.2
2017-05-16T08:47:45.201Z,34.2
2017-05-16T08:48:45.763Z,34.1
2017-05-16T08:49:44.090Z,34.1
2017-05-16T08:50:45.284Z,34.1
2017-05-16T08:51:45.046Z,34
2017-05-16T08:52:44.758Z,34
2017-05-16T08:53:44.484Z,34
2017-05-16T08:54:46.176Z,34
2017-05-16T08:55:45.979Z,34
2017-05-16T08:56:45.789Z,34.1
2017-05-16T08:57:46.936Z,34.2
2017-05-16T08:58:46.939Z,34.2
2017-05-16T08:59:47.497Z,34.3
2017-05-16T09:00:45.543Z,34.4
2017-05-16T09:01:46.336Z,34.5
2017-05-16T09:02:46.102Z,34.5
2017-05-16T09:03:45.174Z,34.7
2017-05-16T09:04:46.903Z,34.8
2017-05-16T09:05:49.307Z,34.9
2017-05-16T09:06:46.825Z,35
2017-05-16T09:07:45.824Z,34.9
2017-05-16T09:08:46.107Z,34.8
2017-05-16T09:09:46.033Z,34.6
2017-05-16T09:10:50.418Z,34.5
2017-05-16T09:11:49.098Z,34.3
2017-05-16T09:12:47.165Z,34.2
2017-05-16T09:13:48.276Z,34.1
2017-05-16T09:14:48.917Z,34
2017-05-16T09:15:49.051Z,33.9
2017-05-16T09:16:50.399Z,33.8
2017-05-16T09:17:53.878Z,33.7
2017-05-16T09:18:51.081Z,33.6
2017-05-16T09:19:45.307Z,33.6
2017-05-16T09:20:48.166Z,33.5
2017-05-16T09:21:47.279Z,33.5
2017-05-16T09:22:45.388Z,33.4
2017-05-16T09:23:48.198Z,33.4
2017-05-16T09:24:50.363Z,33.4
2017-05-16T09:25:47.474Z,33.4
2017-05-16T09:26:51.549Z,33.5
2017-05-16T09:27:50.984Z,33.4
2017-05-16T09:28:48.793Z,33.4
2017-05-16T09:29:52.466Z,33.3
2017-05-16T09:30:49.174Z,33.3
2017-05-16T09:31:51.092Z,33.2
2017-05-16T09:32:55.921Z,33.2
2017-05-16T09:33:50.631Z,33.1
2017-05-16T09:34:48.031Z,33.1
2017-05-16T09:35:50.186Z,33
2017-05-16T09:36:49.676Z,33
2017-05-16T09:37:49.444Z,33
2017-05-16T09:38:50.897Z,33
2017-05-16T09:39:52.997Z,33
2017-05-16T09:40:48.778Z,32.9
2017-05-16T09:41:52.019Z,32.9
2017-05-16T09:42:49.001Z,32.9
2017-05-16T09:43:49.581Z,32.9
2017-05-16T09:44:53.111Z,32.8
2017-05-16T09:45:50.710Z,32.9
2017-05-16T09:46:48.816Z,32.8
2017-05-16T09:47:52.284Z,32.8
2017-05-16T09:48:51.738Z,32.8
2017-05-16T09:49:53.107Z,32.8
2017-05-16T09:50:53.879Z,32.7
2017-05-16T09:51:52.370Z,32.7
2017-05-16T09:52:50.801Z,32.7
2017-05-16T09:53:52.916Z,32.7
2017-05-16T09:54:51.897Z,32.7
2017-05-16T09:55:49.811Z,32.7
2017-05-16T09:56:54.941Z,32.6
2017-05-16T09:57:50.897Z,32.6
2017-05-16T09:58:52.617Z,32.7
2017-05-16T09:59:52.579Z,32.6
2017-05-16T10:00:52.210Z,32.6
2017-05-16T10:01:54.594Z,32.6
2017-05-16T10:02:54.517Z,32.6
2017-05-16T10:03:52.993Z,32.7
2017-05-16T10:04:53.331Z,32.7
2017-05-16T10:05:50.081Z,32.6
2017-05-16T10:06:53.375Z,32.6
2017-05-16T10:07:55.283Z,32.6
2017-05-16T10:08:51.572Z,32.6
2017-05-16T10:09:50.628Z,32.7
2017-05-16T10:10:53.992Z,32.6
2017-05-16T10:11:56.698Z,32.7
2017-05-16T10:12:57.650Z,32.7
2017-05-16T10:13:52.315Z,32.8
2017-05-16T10:14:53.090Z,32.8
2017-05-16T10:15:51.543Z,32.8
2017-05-16T10:16:49.519Z,32.8
2017-05-16T10:17:53.365Z,32.8
2017-05-16T10:18:51.143Z,32.9
2017-05-16T10:19:50.728Z,32.9
2017-05-16T10:20:48.145Z,33
2017-05-16T10:21:52.439Z,32.9
2017-05-16T10:22:50.043Z,33
2017-05-16T10:23:53.437Z,33
2017-05-16T10:24:55.451Z,33.1
2017-05-16T10:25:54.878Z,33.1
2017-05-16T10:26:55.517Z,33.2
2017-05-16T10:27:48.527Z,33.2
2017-05-16T10:28:54.213Z,33.2
2017-05-16T10:29:49.085Z,33.2
2017-05-16T10:30:50.771Z,33.3
2017-05-16T10:31:51.886Z,33.3
2017-05-16T10:32:55.765Z,33.3
2017-05-16T10:33:52.510Z,33.3
2017-05-16T10:34:55.881Z,33.3
2017-05-16T10:36:52.528Z,33.4
2017-05-16T10:37:51.129Z,33.4
2017-05-16T10:38:49.993Z,33.4
2017-05-16T10:39:50.952Z,33.4
2017-05-16T10:40:51.685Z,33.4
2017-05-16T10:41:51.884Z,33.4
2017-05-16T10:42:54.787Z,33.3
2017-05-16T10:43:54.290Z,33.4
2017-05-16T10:44:56.946Z,33.4
2017-05-16T10:45:56.481Z,33.4
2017-05-16T10:46:53.068Z,33.4
2017-05-16T10:47:53.416Z,33.5
2017-05-16T10:48:53.937Z,33.5
2017-05-16T10:49:50.646Z,33.6
2017-05-16T10:50:51.522Z,33.6
2017-05-16T10:51:49.407Z,33.6
2017-05-16T10:52:50.641Z,33.6
2017-05-16T10:53:51.591Z,33.5
2017-05-16T10:54:55.276Z,33.6
2017-05-16T10:55:55.762Z,33.6
2017-05-16T10:56:51.821Z,33.6
2017-05-16T10:57:50.208Z,33.6
2017-05-16T10:58:51.795Z,33.7
2017-05-16T10:59:53.424Z,33.7
2017-05-16T11:00:50.473Z,33.7
2017-05-16T11:01:50.440Z,33.7
2017-05-16T11:02:51.568Z,33.7
2017-05-16T11:03:51.690Z,33.7
2017-05-16T11:04:51.641Z,33.7
2017-05-16T11:05:54.732Z,33.8
2017-05-16T11:06:50.912Z,33.8
2017-05-16T11:07:52.322Z,33.8
2017-05-16T11:08:51.772Z,33.8
2017-05-16T11:09:52.321Z,33.8
2017-05-16T11:10:54.399Z,33.8
2017-05-16T11:11:53.843Z,33.8
2017-05-16T11:12:53.221Z,33.8
2017-05-16T11:13:56.351Z,33.8
2017-05-16T11:14:53.197Z,33.8
2017-05-16T11:15:53.447Z,33.9
2017-05-16T11:16:51.016Z,33.9
2017-05-16T11:17:55.640Z,33.9
2017-05-16T11:18:53.009Z,33.9
2017-05-16T11:19:52.698Z,33.9
2017-05-16T11:20:53.162Z,33.9
2017-05-16T11:21:52.844Z,33.9
2017-05-16T11:22:52.000Z,34
2017-05-16T11:23:53.923Z,34
2017-05-16T11:24:53.549Z,34
2017-05-16T11:25:54.740Z,34
2017-05-16T11:26:52.591Z,34
2017-05-16T11:27:52.748Z,34
2017-05-16T11:28:53.526Z,34
2017-05-16T11:29:51.740Z,34
2017-05-16T11:30:52.243Z,34
2017-05-16T11:31:52.885Z,33.9
2017-05-16T11:32:51.282Z,33.9
2017-05-16T11:33:54.431Z,34
2017-05-16T11:34:53.722Z,34
2017-05-16T11:35:53.102Z,34
2017-05-16T11:36:53.828Z,34
2017-05-16T11:37:55.550Z,34
2017-05-16T11:38:51.576Z,34
2017-05-16T11:39:51.743Z,34
2017-05-16T11:40:56.392Z,34
2017-05-16T11:41:53.316Z,34.1
2017-05-16T11:42:53.506Z,34.1
2017-05-16T11:43:53.595Z,34.1
2017-05-16T11:44:55.829Z,34.1
2017-05-16T11:45:54.756Z,34.1
2017-05-16T11:46:52.283Z,34.1
2017-05-16T11:47:52.798Z,34
2017-05-16T11:48:54.424Z,34.1
2017-05-16T11:49:52.114Z,34.1
2017-05-16T11:50:53.754Z,34
2017-05-16T11:51:53.900Z,34.1
2017-05-16T11:52:53.574Z,34.1
2017-05-16T11:53:52.473Z,34.1
2017-05-16T11:54:52.371Z,34.1
2017-05-16T11:55:53.212Z,34.1
2017-05-16T11:56:54.083Z,34.2
2017-05-16T11:57:54.207Z,34.2
2017-05-16T11:58:52.848Z,34.2
2017-05-16T11:59:53.247Z,34.2
2017-05-16T12:00:54.301Z,34.2
2017-05-16T12:01:55.646Z,34.2
2017-05-16T12:02:54.623Z,34.2
2017-05-16T12:03:53.521Z,34.2
2017-05-16T12:04:54.096Z,34.2
2017-05-16T12:05:53.164Z,34.2
2017-05-16T12:06:55.211Z,34.2
2017-05-16T12:07:53.740Z,34.2
2017-05-16T12:08:55.302Z,34.3
2017-05-16T12:09:53.878Z,34.3
2017-05-16T12:10:53.669Z,34.3
2017-05-16T12:11:53.821Z,34.3
2017-05-16T12:12:56.143Z,34.3
2017-05-16T12:14:00.098Z,34.3
2017-05-16T12:14:58.277Z,34.3
2017-05-16T12:15:57.338Z,34.4
2017-05-16T12:16:56.008Z,34.4
2017-05-16T12:17:55.065Z,34.4
2017-05-16T12:18:54.875Z,34.4
2017-05-16T12:19:54.786Z,34.4
2017-05-16T12:20:55.060Z,34.4
2017-05-16T12:21:57.477Z,34.4
2017-05-16T12:22:56.161Z,34.5
2017-05-16T12:23:55.245Z,34.5
2017-05-16T12:25:02.660Z,34.2
2017-05-16T12:26:00.436Z,34.5
2017-05-16T12:26:57.570Z,34.5
2017-05-16T12:27:54.064Z,34.5
2017-05-16T12:28:54.309Z,34.6
2017-05-16T12:29:55.648Z,34.6
2017-05-16T12:30:57.515Z,34.6
2017-05-16T12:31:55.690Z,34.6
2017-05-16T12:33:00.675Z,34.6
2017-05-16T12:33:55.302Z,34.6
2017-05-16T12:34:57.355Z,34.6
2017-05-16T12:35:59.692Z,34.6
2017-05-16T12:36:54.997Z,34.6
2017-05-16T12:37:54.381Z,34.7
2017-05-16T12:38:55.817Z,34.7
2017-05-16T12:39:56.131Z,34.7
2017-05-16T12:40:59.320Z,34.7
2017-05-16T12:41:57.953Z,34.7
2017-05-16T12:42:57.343Z,34.7
2017-05-16T12:43:59.608Z,34.7
2017-05-16T12:44:55.335Z,34.7
2017-05-16T12:45:54.755Z,34.8
2017-05-16T12:46:57.934Z,34.8
2017-05-16T12:47:57.640Z,34.8
2017-05-16T12:48:58.344Z,34.8
2017-05-16T12:49:54.892Z,34.8
2017-05-16T12:50:57.028Z,34.8
2017-05-16T12:51:55.685Z,34.8
2017-05-16T12:52:58.716Z,34.8
2017-05-16T12:53:56.655Z,34.8
2017-05-16T12:54:57.351Z,34.9
2017-05-16T12:55:57.264Z,34.9
2017-05-16T12:56:56.271Z,34.9
2017-05-16T12:57:57.729Z,34.9
2017-05-16T12:58:58.225Z,34.9
2017-05-16T13:00:00.038Z,34.9
2017-05-16T13:00:58.392Z,35
2017-05-16T13:01:58.775Z,35
2017-05-16T13:02:59.952Z,35
2017-05-16T13:04:00.291Z,35
2017-05-16T13:04:57.657Z,35
2017-05-16T13:05:56.752Z,34.9
2017-05-16T13:06:58.253Z,35
2017-05-16T13:08:00.002Z,35
2017-05-16T13:09:00.507Z,34.9
2017-05-16T13:09:57.715Z,34.9
2017-05-16T13:10:57.485Z,34.9
2017-05-16T13:11:57.898Z,34.9
2017-05-16T13:12:58.174Z,34.9
2017-05-16T13:13:56.228Z,34.9
2017-05-16T13:14:59.728Z,34.9
2017-05-16T13:15:57.847Z,34.9
2017-05-16T13:16:56.422Z,34.9
2017-05-16T13:17:59.267Z,34.9
2017-05-16T13:18:58.133Z,34.9
2017-05-16T13:19:59.878Z,34.9
2017-05-16T13:21:00.719Z,34.9
2017-05-16T13:21:56.644Z,34.9
2017-05-16T13:23:04.412Z,34.9
2017-05-16T13:23:59.654Z,34.9
2017-05-16T13:24:59.565Z,34.9
2017-05-16T13:26:00.420Z,34.9